Time;durP1;ratioP1;P1;durP2;ratioP2;P2;SDS_P1;SDS_P2;PMS_P1;PMS_P2;Temp;Humidity;BMP_temperature;BMP_pressure;BME280_temperature;BME280_humidity;BME280_pressure;Samples;Min_cycle;Max_cycle;Signal;HPM_P1;HPM_P2
2022/01/29 00:02:12;;;;;;;;;;;;;;;;;;5065393;28;19952;-84
2022/01/29 00:04:40;;;;;;;;;;;;;;;;;;5081189;28;19960;-86
2022/01/29 00:07:06;;;;;;;;;;;;;;;;;;5063208;28;19986;-83
2022/01/29 00:09:33;;;;;;;;;;;;;;;;;;5081893;28;20009;-81
2022/01/29 00:11:59;;;;;;;;;;;;;;;;;;5078720;28;20749;-83
2022/01/29 00:14:25;;;;;;;;;;;;;;;;;;5062336;28;19964;-84
2022/01/29 00:16:51;;;;;;;;;;;;;;;;;;5088181;28;20388;-84
2022/01/29 00:19:17;;;;;;;;;;;;;;;;;;5083787;28;20475;-85
2022/01/29 00:21:44;;;;;;;;;;;;;;;;;;5083144;28;19947;-87
2022/01/29 00:24:10;;;;;;;;;;;;;;;;;;5082142;28;20438;-85
2022/01/29 00:26:36;;;;;;;;;;;;;;;;;;5079476;28;19955;-83
2022/01/29 00:29:09;;;;;;;;;;;;;;;;;;5081857;28;19928;-83
2022/01/29 00:31:35;;;;;;;;;;;;;;;;;;5081641;28;20458;-84
2022/01/29 00:34:01;;;;;;;;;;;;;;;;;;5077859;28;20417;-87
2022/01/29 00:36:28;;;;;;;;;;;;;;;;;;5080726;28;19967;-87
2022/01/29 00:38:54;;;;;;;;;;;;;;;;;;5081415;28;20576;-86
2022/01/29 00:41:20;;;;;;;;;;;;;;;;;;5082016;28;19966;-84
2022/01/29 00:43:46;;;;;;;;;;;;;;;;;;5080504;28;20509;-86
2022/01/29 00:46:12;;;;;;;;;;;;;;;;;;5064510;28;20017;-82
2022/01/29 00:48:39;;;;;;;;;;;;;;;;;;5080950;28;19952;-84
2022/01/29 00:51:05;;;;;;;;;;;;;;;;;;5059897;28;19986;-84
2022/01/29 00:53:31;;;;;;;;;;;;;;;;;;5080565;28;19951;-86
2022/01/29 00:55:57;;;;;;;;;;;;;;;;;;5083657;28;19943;-85
2022/01/29 00:58:23;;;;;;;;;;;;;;;;;;5080553;28;19967;-85
2022/01/29 01:00:50;;;;;;;;;;;;;;;;;;5078799;28;25070;-84
2022/01/29 01:03:16;;;;;;;;;;;;;;;;;;5080373;28;19956;-83
2022/01/29 01:05:42;;;;;;;;;;;;;;;;;;5077270;28;19999;-83
2022/01/29 01:08:10;;;;;;;;;;;;;;;;;;5078822;28;21430;-84
2022/01/29 01:10:37;;;;;;;;;;;;;;;;;;5083382;28;19971;-84
2022/01/29 01:13:03;;;;;;;;;;;;;;;;;;5080411;28;19928;-85
2022/01/29 01:15:29;;;;;;;;;;;;;;;;;;5082600;28;20399;-86
2022/01/29 01:17:55;;;;;;;;;;;;;;;;;;5080095;28;21350;-85
2022/01/29 01:20:22;;;;;;;;;;;;;;;;;;5058916;28;19959;-85
2022/01/29 01:22:48;;;;;;;;;;;;;;;;;;5073744;28;19989;-85
2022/01/29 01:25:14;;;;;;;;;;;;;;;;;;5080716;28;19947;-85
2022/01/29 01:27:40;;;;;;;;;;;;;;;;;;5082748;28;19978;-86
2022/01/29 01:30:06;;;;;;;;;;;;;;;;;;5081955;28;19960;-85
2022/01/29 01:32:33;;;;;;;;;;;;;;;;;;5079041;28;19959;-85
2022/01/29 01:35:09;;;;;;;;;;;;;;;;;;5080475;28;20395;-85
2022/01/29 01:37:50;;;;;;;;;;;;;;;;;;5074767;28;19967;-85
2022/01/29 01:40:18;;;;;;;;;;;;;;;;;;5079319;28;20313;-84
2022/01/29 01:42:44;;;;;;;;;;;;;;;;;;5080537;28;19966;-83
2022/01/29 01:45:10;;;;;;;;;;;;;;;;;;5061397;28;19971;-88
2022/01/29 01:47:36;;;;;;;;;;;;;;;;;;5074402;28;19955;-88
2022/01/29 01:50:03;;;;;;;;;;;;;;;;;;5079655;28;19947;-86
2022/01/29 01:52:29;;;;;;;;;;;;;;;;;;5077273;28;19952;-87
2022/01/29 01:54:55;;;;;;;;;;;;;;;;;;5078710;28;20255;-87
2022/01/29 01:57:21;;;;;;;;;;;;;;;;;;5083624;28;20355;-87
2022/01/29 01:59:47;;;;;;;;;;;;;;;;;;5081491;28;19959;-87
2022/01/29 02:02:14;;;;;;;;;;;;;;;;;;5064144;28;19956;-86
2022/01/29 02:04:40;;;;;;;;;;;;;;;;;;5081263;28;19963;-84
2022/01/29 02:07:06;;;;;;;;;;;;;;;;;;5078822;28;20355;-85
2022/01/29 02:09:33;;;;;;;;;;;;;;;;;;5079778;28;19928;-85
2022/01/29 02:12:01;;;;;;;;;;;;;;;;;;5076383;28;20387;-86
2022/01/29 02:14:31;;;;;;;;;;;;;;;;;;5078939;28;19971;-85
2022/01/29 02:16:57;;;;;;;;;;;;;;;;;;5081049;28;19959;-86
2022/01/29 02:19:23;;;;;;;;;;;;;;;;;;5060583;28;19952;-86
2022/01/29 02:21:49;;;;;;;;;;;;;;;;;;5057956;28;20018;-86
2022/01/29 02:24:15;;;;;;;;;;;;;;;;;;5079882;28;19955;-86
2022/01/29 02:26:41;;;;;;;;;;;;;;;;;;5081415;28;20083;-85
2022/01/29 02:29:08;;;;;;;;;;;;;;;;;;5081453;28;19968;-87
2022/01/29 02:31:34;;;;;;;;;;;;;;;;;;5056154;28;20293;-86
2022/01/29 02:34:00;;;;;;;;;;;;;;;;;;5080313;28;20397;-87
2022/01/29 02:36:26;;;;;;;;;;;;;;;;;;5079473;28;19952;-87
2022/01/29 02:38:53;;;;;;;;;;;;;;;;;;5075965;28;20362;-87
2022/01/29 02:41:20;;;;;;;;;;;;;;;;;;5081827;28;19955;-88
2022/01/29 02:43:48;;;;;;;;;;;;;;;;;;5058575;28;19952;-86
2022/01/29 02:48:43;;;;;;;;;;;;;;;;;;5079579;28;19955;-81
2022/01/29 02:51:10;;;;;;;;;;;;;;;;;;5077783;28;19966;-82
2022/01/29 02:53:36;;;;;;;;;;;;;;;;;;5076735;28;20364;-81
2022/01/29 02:56:02;;;;;;;;;;;;;;;;;;5076316;28;19962;-83
2022/01/29 02:58:28;;;;;;;;;;;;;;;;;;5075703;28;20493;-84
2022/01/29 03:00:54;;;;;;;;;;;;;;;;;;5074815;28;20413;-82
2022/01/29 03:03:21;;;;;;;;;;;;;;;;;;5079563;28;19958;-81
2022/01/29 03:05:47;;;;;;;;;;;;;;;;;;5060789;28;19959;-81
2022/01/29 03:08:13;;;;;;;;;;;;;;;;;;5079242;28;20583;-83
2022/01/29 03:10:39;;;;;;;;;;;;;;;;;;5079396;28;19971;-83
2022/01/29 03:13:05;;;;;;;;;;;;;;;;;;5055249;28;19967;-84
2022/01/29 03:15:32;;;;;;;;;;;;;;;;;;5078354;28;19944;-83
2022/01/29 03:17:58;;;;;;;;;;;;;;;;;;5063137;28;20015;-83
2022/01/29 03:20:24;;;;;;;;;;;;;;;;;;5080078;28;19995;-83
2022/01/29 03:22:50;;;;;;;;;;;;;;;;;;5077180;28;19974;-82
2022/01/29 03:25:16;;;;;;;;;;;;;;;;;;5079341;28;19952;-83
2022/01/29 03:27:43;;;;;;;;;;;;;;;;;;5059902;28;19963;-82
2022/01/29 03:30:09;;;;;;;;;;;;;;;;;;5083401;28;19955;-83
2022/01/29 03:32:35;;;;;;;;;;;;;;;;;;5078495;28;20773;-83
2022/01/29 03:35:01;;;;;;;;;;;;;;;;;;5082602;28;19963;-83
2022/01/29 03:37:27;;;;;;;;;;;;;;;;;;5080421;28;19956;-84
2022/01/29 03:39:58;;;;;;;;;;;;;;;;;;5078151;28;19956;-84
2022/01/29 03:42:25;;;;;;;;;;;;;;;;;;5084455;28;19948;-84
2022/01/29 03:44:52;;;;;;;;;;;;;;;;;;5080196;28;19955;-85
2022/01/29 03:47:18;;;;;;;;;;;;;;;;;;5084123;28;20016;-84
2022/01/29 03:49:44;;;;;;;;;;;;;;;;;;5085113;28;19924;-86
2022/01/29 03:52:10;;;;;;;;;;;;;;;;;;5083176;28;19989;-86
2022/01/29 03:54:36;;;;;;;;;;;;;;;;;;5084158;28;19971;-83
2022/01/29 03:57:02;;;;;;;;;;;;;;;;;;5065517;28;19955;-84
2022/01/29 03:59:29;;;;;;;;;;;;;;;;;;5083306;28;20420;-84
2022/01/29 04:01:55;;;;;;;;;;;;;;;;;;5081871;28;19944;-85
2022/01/29 04:04:21;;;;;;;;;;;;;;;;;;5081123;28;19959;-84
2022/01/29 04:06:49;;;;;;;;;;;;;;;;;;5080291;28;19965;-84
2022/01/29 04:09:17;;;;;;;;;;;;;;;;;;5081706;28;20878;-85
2022/01/29 04:11:44;;;;;;;;;;;;;;;;;;5080625;28;19966;-84
2022/01/29 04:14:18;;;;;;;;;;;;;;;;;;5076236;28;19959;-83
2022/01/29 04:16:44;;;;;;;;;;;;;;;;;;5063827;28;20013;-83
2022/01/29 04:19:10;;;;;;;;;;;;;;;;;;5079082;28;19928;-83
2022/01/29 04:21:41;;;;;;;;;;;;;;;;;;5082674;28;20410;-83
2022/01/29 04:24:13;;;;;;;;;;;;;;;;;;5062805;28;19916;-83
2022/01/29 04:26:39;;;;;;;;;;;;;;;;;;5082975;28;20050;-83
2022/01/29 04:29:07;;;;;;;;;;;;;;;;;;5080417;28;19964;-83
2022/01/29 04:31:47;;;;;;;;;;;;;;;;;;5080847;28;20011;-83
2022/01/29 04:34:13;;;;;;;;;;;;;;;;;;5061556;28;19962;-83
2022/01/29 04:36:39;;;;;;;;;;;;;;;;;;5081203;28;19958;-83
2022/01/29 04:39:06;;;;;;;;;;;;;;;;;;5080378;28;19960;-83
2022/01/29 04:41:32;;;;;;;;;;;;;;;;;;5080002;28;19951;-82
2022/01/29 04:43:58;;;;;;;;;;;;;;;;;;5081904;28;19959;-83
2022/01/29 04:46:24;;;;;;;;;;;;;;;;;;5080167;28;20024;-82
2022/01/29 04:48:50;;;;;;;;;;;;;;;;;;5078384;28;20408;-82
2022/01/29 04:51:17;;;;;;;;;;;;;;;;;;5062532;28;19928;-82
2022/01/29 04:53:43;;;;;;;;;;;;;;;;;;5081025;28;19988;-82
2022/01/29 04:56:09;;;;;;;;;;;;;;;;;;5082632;28;20016;-83
2022/01/29 04:58:35;;;;;;;;;;;;;;;;;;5078865;28;19951;-86
2022/01/29 05:01:02;;;;;;;;;;;;;;;;;;5061726;28;20687;-86
2022/01/29 05:03:28;;;;;;;;;;;;;;;;;;5081269;28;19953;-85
2022/01/29 05:05:55;;;;;;;;;;;;;;;;;;5079677;28;19955;-83
2022/01/29 05:08:21;;;;;;;;;;;;;;;;;;5081243;28;19955;-83
2022/01/29 05:10:47;;;;;;;;;;;;;;;;;;5074198;28;19955;-82
2022/01/29 05:13:18;;;;;;;;;;;;;;;;;;5063339;28;19991;-83
2022/01/29 05:16:00;;;;;;;;;;;;;;;;;;5076215;28;19955;-84
2022/01/29 05:26:54;;;;;;;;;;;;;;;;;;5082742;28;20267;-84
2022/01/29 05:29:21;;;;;;;;;;;;;;;;;;5080148;28;19952;-85
2022/01/29 05:31:51;;;;;;;;;;;;;;;;;;5080223;28;19963;-85
2022/01/29 05:34:17;;;;;;;;;;;;;;;;;;5077653;28;19952;-85
2022/01/29 05:36:43;;;;;;;;;;;;;;;;;;5079862;28;19963;-85
2022/01/29 05:39:10;;;;;;;;;;;;;;;;;;5079086;28;19943;-85
2022/01/29 05:41:36;;;;;;;;;;;;;;;;;;5083905;28;19974;-85
2022/01/29 05:44:02;;;;;;;;;;;;;;;;;;5083359;28;19920;-84
2022/01/29 05:46:28;;;;;;;;;;;;;;;;;;5078947;28;19951;-83
2022/01/29 05:48:54;;;;;;;;;;;;;;;;;;5076801;28;19959;-83
2022/01/29 05:51:20;;;;;;;;;;;;;;;;;;5079665;28;19968;-83
2022/01/29 05:53:47;;;;;;;;;;;;;;;;;;5061533;28;20036;-84
2022/01/29 05:56:13;;;;;;;;;;;;;;;;;;5078670;28;19960;-84
2022/01/29 05:58:39;;;;;;;;;;;;;;;;;;5077145;28;20411;-83
2022/01/29 06:01:05;;;;;;;;;;;;;;;;;;5078700;28;19944;-83
2022/01/29 06:03:31;;;;;;;;;;;;;;;;;;5078492;28;20520;-79
2022/01/29 06:05:58;;;;;;;;;;;;;;;;;;5062303;28;20037;-82
2022/01/29 06:08:24;;;;;;;;;;;;;;;;;;5080595;28;19982;-82
2022/01/29 06:10:50;;;;;;;;;;;;;;;;;;5076644;28;20017;-84
2022/01/29 06:13:16;;;;;;;;;;;;;;;;;;5081560;28;19948;-82
2022/01/29 06:15:43;;;;;;;;;;;;;;;;;;5071392;28;19963;-83
2022/01/29 06:18:13;;;;;;;;;;;;;;;;;;5079181;28;19956;-83
2022/01/29 06:20:39;;;;;;;;;;;;;;;;;;5074968;28;20478;-84
2022/01/29 06:23:06;;;;;;;;;;;;;;;;;;5081851;28;19920;-85
2022/01/29 06:25:32;;;;;;;;;;;;;;;;;;5079395;28;19959;-83
2022/01/29 06:27:58;;;;;;;;;;;;;;;;;;5060978;28;20001;-84
2022/01/29 06:30:25;;;;;;;;;;;;;;;;;;5077588;28;20092;-84
2022/01/29 06:32:51;;;;;;;;;;;;;;;;;;5077958;28;19959;-83
2022/01/29 06:35:17;;;;;;;;;;;;;;;;;;5060883;28;19971;-83
2022/01/29 06:37:43;;;;;;;;;;;;;;;;;;5078420;28;19956;-84
2022/01/29 06:40:09;;;;;;;;;;;;;;;;;;5078824;28;19955;-84
2022/01/29 06:42:35;;;;;;;;;;;;;;;;;;5078134;28;19959;-83
2022/01/29 06:45:02;;;;;;;;;;;;;;;;;;5078909;28;20349;-84
2022/01/29 06:47:28;;;;;;;;;;;;;;;;;;5080275;28;20359;-84
2022/01/29 06:49:54;;;;;;;;;;;;;;;;;;5080132;28;20019;-84
2022/01/29 06:52:20;;;;;;;;;;;;;;;;;;5082876;28;19924;-84
2022/01/29 06:54:47;;;;;;;;;;;;;;;;;;5082439;28;19951;-84
2022/01/29 06:57:13;;;;;;;;;;;;;;;;;;5087818;28;20004;-86
2022/01/29 06:59:39;;;;;;;;;;;;;;;;;;5083001;28;19956;-86
2022/01/29 07:02:05;;;;;;;;;;;;;;;;;;5086845;28;19920;-86
2022/01/29 07:04:31;;;;;;;;;;;;;;;;;;5084051;28;20693;-84
2022/01/29 07:06:57;;;;;;;;;;;;;;;;;;5088750;28;20423;-85
2022/01/29 07:09:24;;;;;;;;;;;;;;;;;;5069311;28;20447;-85
2022/01/29 07:11:56;;;;;;;;;;;;;;;;;;5077608;28;20395;-85
2022/01/29 07:14:22;;;;;;;;;;;;;;;;;;5085251;28;19942;-87
2022/01/29 07:16:48;;;;;;;;;;;;;;;;;;5090944;28;19964;-85
2022/01/29 07:19:14;;;;;;;;;;;;;;;;;;5086370;28;20462;-86
2022/01/29 07:21:40;;;;;;;;;;;;;;;;;;5089373;28;19955;-85
2022/01/29 07:24:07;;;;;;;;;;;;;;;;;;5085901;28;19971;-85
2022/01/29 07:26:33;;;;;;;;;;;;;;;;;;5085514;28;19920;-85
2022/01/29 07:28:59;;;;;;;;;;;;;;;;;;5086617;28;19963;-83
2022/01/29 07:31:25;;;;;;;;;;;;;;;;;;5087066;28;19963;-81
2022/01/29 07:33:51;;;;;;;;;;;;;;;;;;5087379;28;20014;-81
2022/01/29 07:36:18;;;;;;;;;;;;;;;;;;5085557;28;20429;-84
2022/01/29 07:38:44;;;;;;;;;;;;;;;;;;5083722;28;19943;-84
2022/01/29 07:41:10;;;;;;;;;;;;;;;;;;5084698;28;19928;-81
2022/01/29 07:43:36;;;;;;;;;;;;;;;;;;5085197;28;19971;-84
2022/01/29 07:46:02;;;;;;;;;;;;;;;;;;5087903;28;19952;-85
2022/01/29 07:48:29;;;;;;;;;;;;;;;;;;5075611;28;20534;-85
2022/01/29 07:50:55;;;;;;;;;;;;;;;;;;5088184;28;19968;-85
2022/01/29 07:53:21;;;;;;;;;;;;;;;;;;5073793;28;19964;-86
2022/01/29 07:55:47;;;;;;;;;;;;;;;;;;5070448;28;19974;-84
2022/01/29 07:58:13;;;;;;;;;;;;;;;;;;5085486;28;19959;-83
2022/01/29 08:00:39;;;;;;;;;;;;;;;;;;5086934;28;19978;-84
2022/01/29 08:03:06;;;;;;;;;;;;;;;;;;5089359;28;20340;-84
2022/01/29 08:05:34;;;;;;;;;;;;;;;;;;5068067;28;19955;-82
2022/01/29 08:08:00;;;;;;;;;;;;;;;;;;5069603;28;19959;-83
2022/01/29 08:10:27;;;;;;;;;;;;;;;;;;5087003;28;19983;-84
2022/01/29 08:12:53;;;;;;;;;;;;;;;;;;5085498;28;19923;-84
2022/01/29 08:15:19;;;;;;;;;;;;;;;;;;5086859;28;19931;-85
2022/01/29 08:17:45;;;;;;;;;;;;;;;;;;5085210;28;19958;-86
2022/01/29 08:20:12;;;;;;;;;;;;;;;;;;5068129;28;19955;-86
2022/01/29 08:22:38;;;;;;;;;;;;;;;;;;5089392;28;19948;-85
2022/01/29 08:25:05;;;;;;;;;;;;;;;;;;5087321;28;19952;-86
2022/01/29 08:27:31;;;;;;;;;;;;;;;;;;5090353;28;20442;-86
2022/01/29 08:29:57;;;;;;;;;;;;;;;;;;5081595;28;20550;-86
2022/01/29 08:32:23;;;;;;;;;;;;;;;;;;5088573;28;19955;-86
2022/01/29 08:34:49;;;;;;;;;;;;;;;;;;5085648;28;19998;-86
2022/01/29 08:37:16;;;;;;;;;;;;;;;;;;5086988;28;19962;-86
2022/01/29 08:39:43;;;;;;;;;;;;;;;;;;5086286;28;19947;-85
2022/01/29 08:42:09;;;;;;;;;;;;;;;;;;5086594;28;19958;-86
2022/01/29 08:44:36;;;;;;;;;;;;;;;;;;5088480;28;19943;-85
2022/01/29 08:47:02;;;;;;;;;;;;;;;;;;5088634;28;19913;-87
2022/01/29 08:49:28;;;;;;;;;;;;;;;;;;5084273;28;19920;-86
2022/01/29 08:51:54;;;;;;;;;;;;;;;;;;5067223;28;19955;-85
2022/01/29 08:54:20;;;;;;;;;;;;;;;;;;5085055;28;19963;-86
2022/01/29 08:56:46;;;;;;;;;;;;;;;;;;5086355;28;20664;-83
2022/01/29 08:59:13;;;;;;;;;;;;;;;;;;5084332;28;19917;-82
2022/01/29 09:01:39;;;;;;;;;;;;;;;;;;5085645;28;20399;-82
2022/01/29 09:04:05;;;;;;;;;;;;;;;;;;5086975;28;19955;-82
2022/01/29 09:06:31;;;;;;;;;;;;;;;;;;5066471;28;19960;-83
2022/01/29 09:08:58;;;;;;;;;;;;;;;;;;5083401;28;22252;-83
2022/01/29 09:11:24;;;;;;;;;;;;;;;;;;5084441;28;19963;-82
2022/01/29 09:13:50;;;;;;;;;;;;;;;;;;5082714;28;20713;-82
2022/01/29 09:16:16;;;;;;;;;;;;;;;;;;5084191;28;19959;-82
2022/01/29 09:18:43;;;;;;;;;;;;;;;;;;5085374;28;19983;-83
2022/01/29 09:21:09;;;;;;;;;;;;;;;;;;5083586;28;19947;-83
2022/01/29 09:23:35;;;;;;;;;;;;;;;;;;5066113;28;19951;-86
2022/01/29 09:26:01;;;;;;;;;;;;;;;;;;5085372;28;19960;-83
2022/01/29 09:28:27;;;;;;;;;;;;;;;;;;5083745;28;20447;-82
2022/01/29 09:30:54;;;;;;;;;;;;;;;;;;5064835;28;19932;-82
2022/01/29 09:33:20;;;;;;;;;;;;;;;;;;5060565;28;19912;-82
2022/01/29 09:35:46;;;;;;;;;;;;;;;;;;5082156;28;19956;-81
2022/01/29 09:38:12;;;;;;;;;;;;;;;;;;5086960;28;19977;-82
2022/01/29 09:40:38;;;;;;;;;;;;;;;;;;5082646;28;20336;-81
2022/01/29 09:43:07;;;;;;;;;;;;;;;;;;5082662;28;20036;-81
2022/01/29 09:45:34;;;;;;;;;;;;;;;;;;5081858;28;19967;-85
2022/01/29 09:48:03;;;;;;;;;;;;;;;;;;5064665;28;19967;-82
2022/01/29 09:50:29;;;;;;;;;;;;;;;;;;5065480;28;19966;-82
2022/01/29 09:52:56;;;;;;;;;;;;;;;;;;5083320;28;19998;-81
2022/01/29 09:55:22;;;;;;;;;;;;;;;;;;5085226;28;19951;-81
2022/01/29 09:57:48;;;;;;;;;;;;;;;;;;5066396;28;20344;-82
2022/01/29 10:00:14;;;;;;;;;;;;;;;;;;5079926;28;19959;-81
2022/01/29 10:02:40;;;;;;;;;;;;;;;;;;5082959;28;19956;-81
2022/01/29 10:05:08;;;;;;;;;;;;;;;;;;5065164;28;19944;-83
2022/01/29 10:07:34;;;;;;;;;;;;;;;;;;5083078;28;19966;-85
2022/01/29 10:10:01;;;;;;;;;;;;;;;;;;5080709;28;19962;-78
2022/01/29 10:12:27;;;;;;;;;;;;;;;;;;5082069;28;20368;-80
2022/01/29 10:14:53;;;;;;;;;;;;;;;;;;5080208;28;19962;-78
2022/01/29 10:17:20;;;;;;;;;;;;;;;;;;5080266;28;19963;-79
2022/01/29 10:19:46;;;;;;;;;;;;;;;;;;5063135;28;19974;-79
2022/01/29 10:22:12;;;;;;;;;;;;;;;;;;5082699;28;19971;-79
2022/01/29 10:24:38;;;;;;;;;;;;;;;;;;5081951;28;20399;-78
2022/01/29 10:27:04;;;;;;;;;;;;;;;;;;5079506;28;20065;-80
2022/01/29 10:29:31;;;;;;;;;;;;;;;;;;5085348;28;20412;-79
2022/01/29 10:31:58;;;;;;;;;;;;;;;;;;5082520;28;20498;-79
2022/01/29 10:34:25;;;;;;;;;;;;;;;;;;5080670;28;19940;-79
2022/01/29 10:36:51;;;;;;;;;;;;;;;;;;5081388;28;19952;-79
2022/01/29 10:39:17;;;;;;;;;;;;;;;;;;5081173;28;20000;-79
2022/01/29 10:41:44;;;;;;;;;;;;;;;;;;5079144;28;19986;-79
2022/01/29 10:46:36;;;;;;;;;;;;;;;;;;5080444;28;19944;-80
2022/01/29 10:49:03;;;;;;;;;;;;;;;;;;5080069;28;19962;-77
2022/01/29 10:51:29;;;;;;;;;;;;;;;;;;5083284;28;19947;-77
2022/01/29 10:53:55;;;;;;;;;;;;;;;;;;5078509;28;19967;-78
2022/01/29 10:56:22;;;;;;;;;;;;;;;;;;5079388;28;20050;-77
2022/01/29 10:58:50;;;;;;;;;;;;;;;;;;5080940;28;19940;-79
2022/01/29 11:01:16;;;;;;;;;;;;;;;;;;5081472;28;19959;-78
2022/01/29 11:03:42;;;;;;;;;;;;;;;;;;5077793;28;19963;-79
2022/01/29 11:06:09;;;;;;;;;;;;;;;;;;5083822;28;19954;-79
2022/01/29 11:08:35;;;;;;;;;;;;;;;;;;5082808;28;19962;-79
2022/01/29 11:11:02;;;;;;;;;;;;;;;;;;5080302;28;20088;-79
2022/01/29 11:13:28;;;;;;;;;;;;;;;;;;5084161;28;19969;-80
2022/01/29 11:15:54;;;;;;;;;;;;;;;;;;5080210;28;20421;-80
2022/01/29 11:18:20;;;;;;;;;;;;;;;;;;5082713;28;19955;-79
2022/01/29 11:20:46;;;;;;;;;;;;;;;;;;5080903;28;20384;-79
2022/01/29 11:23:12;;;;;;;;;;;;;;;;;;5081725;28;19947;-79
2022/01/29 11:25:39;;;;;;;;;;;;;;;;;;5082309;28;19959;-78
2022/01/29 11:28:05;;;;;;;;;;;;;;;;;;5075941;28;19990;-80
2022/01/29 11:30:31;;;;;;;;;;;;;;;;;;5084102;28;19963;-80
2022/01/29 11:32:57;;;;;;;;;;;;;;;;;;5075630;28;19951;-80
2022/01/29 11:35:23;;;;;;;;;;;;;;;;;;5084213;28;19966;-79
2022/01/29 11:37:49;;;;;;;;;;;;;;;;;;5077762;28;19944;-78
2022/01/29 11:40:16;;;;;;;;;;;;;;;;;;5079707;28;19960;-79
2022/01/29 11:42:42;;;;;;;;;;;;;;;;;;5078614;28;19959;-78
2022/01/29 11:45:11;;;;;;;;;;;;;;;;;;5081773;28;19959;-77
2022/01/29 11:47:37;;;;;;;;;;;;;;;;;;5081337;28;19959;-78
2022/01/29 11:50:03;;;;;;;;;;;;;;;;;;5080280;28;19960;-78
2022/01/29 11:52:29;;;;;;;;;;;;;;;;;;5086739;28;19963;-78
2022/01/29 11:54:55;;;;;;;;;;;;;;;;;;5085033;28;19962;-77
2022/01/29 11:57:22;;;;;;;;;;;;;;;;;;5065290;28;19966;-78
2022/01/29 11:59:48;;;;;;;;;;;;;;;;;;5082461;28;19966;-77
2022/01/29 12:02:15;;;;;;;;;;;;;;;;;;5084066;28;20453;-77
2022/01/29 12:04:41;;;;;;;;;;;;;;;;;;5086363;28;19967;-76
2022/01/29 12:09:39;;;;;;;;;;;;;;;;;;5089701;28;19977;-78
2022/01/29 12:12:05;;;;;;;;;;;;;;;;;;5081348;28;19963;-77
2022/01/29 12:14:31;;;;;;;;;;;;;;;;;;5084031;28;19928;-77
2022/01/29 12:16:58;;;;;;;;;;;;;;;;;;5084345;28;19927;-77
2022/01/29 12:19:24;;;;;;;;;;;;;;;;;;5066383;28;20395;-77
2022/01/29 12:21:50;;;;;;;;;;;;;;;;;;5084637;28;20458;-76
2022/01/29 12:24:16;;;;;;;;;;;;;;;;;;5082920;28;19960;-78
2022/01/29 12:26:43;;;;;;;;;;;;;;;;;;5065409;28;19948;-77
2022/01/29 12:29:09;;;;;;;;;;;;;;;;;;5081905;28;19971;-77
2022/01/29 12:31:35;;;;;;;;;;;;;;;;;;5083856;28;19963;-77
2022/01/29 12:34:01;;;;;;;;;;;;;;;;;;5085415;28;19952;-77
2022/01/29 12:36:27;;;;;;;;;;;;;;;;;;5067716;28;19922;-77
2022/01/29 12:38:53;;;;;;;;;;;;;;;;;;5081522;28;19966;-78
2022/01/29 12:41:33;;;;;;;;;;;;;;;;;;5088421;28;20108;-78
2022/01/29 12:44:04;;;;;;;;;;;;;;;;;;5081523;28;19956;-79
2022/01/29 12:46:30;;;;;;;;;;;;;;;;;;5085566;28;19924;-79
2022/01/29 12:48:56;;;;;;;;;;;;;;;;;;5083435;28;19952;-78
2022/01/29 12:51:23;;;;;;;;;;;;;;;;;;5082952;28;20417;-78
2022/01/29 12:53:49;;;;;;;;;;;;;;;;;;5083644;28;19952;-79
2022/01/29 12:56:15;;;;;;;;;;;;;;;;;;5082077;28;20498;-78
2022/01/29 12:58:41;;;;;;;;;;;;;;;;;;5081130;28;20005;-77
2022/01/29 13:01:07;;;;;;;;;;;;;;;;;;5082252;28;19961;-79
2022/01/29 13:03:34;;;;;;;;;;;;;;;;;;5081595;28;19951;-77
2022/01/29 13:06:00;;;;;;;;;;;;;;;;;;5064732;28;19924;-78
2022/01/29 13:08:26;;;;;;;;;;;;;;;;;;5085137;28;19955;-79
2022/01/29 13:10:52;;;;;;;;;;;;;;;;;;5066965;28;19971;-80
2022/01/29 13:13:18;;;;;;;;;;;;;;;;;;5080993;28;20459;-79
2022/01/29 13:15:45;;;;;;;;;;;;;;;;;;5081361;28;19958;-79
2022/01/29 13:18:11;;;;;;;;;;;;;;;;;;5061905;28;19962;-79
2022/01/29 13:20:37;;;;;;;;;;;;;;;;;;5061986;28;19959;-80
2022/01/29 13:23:03;;;;;;;;;;;;;;;;;;5085242;28;19959;-80
2022/01/29 13:25:30;;;;;;;;;;;;;;;;;;5076686;28;20008;-78
2022/01/29 13:27:56;;;;;;;;;;;;;;;;;;5084796;28;19924;-79
2022/01/29 13:30:26;;;;;;;;;;;;;;;;;;5076147;28;20074;-79
2022/01/29 13:32:52;;;;;;;;;;;;;;;;;;5084692;28;20029;-78
2022/01/29 13:35:20;;;;;;;;;;;;;;;;;;5082623;28;19958;-79
2022/01/29 13:37:47;;;;;;;;;;;;;;;;;;5061014;28;19955;-79
2022/01/29 13:40:19;;;;;;;;;;;;;;;;;;5081325;28;19960;-91
2022/01/29 13:42:45;;;;;;;;;;;;;;;;;;5083204;28;20397;-79
2022/01/29 13:45:11;;;;;;;;;;;;;;;;;;5076042;28;19962;-80
2022/01/29 13:47:38;;;;;;;;;;;;;;;;;;5081959;28;19958;-77
2022/01/29 13:50:04;;;;;;;;;;;;;;;;;;5063034;28;19944;-79
2022/01/29 13:52:30;;;;;;;;;;;;;;;;;;5083411;28;19924;-78
2022/01/29 13:54:56;;;;;;;;;;;;;;;;;;5082266;28;20356;-79
2022/01/29 13:57:23;;;;;;;;;;;;;;;;;;5082465;28;19959;-78
2022/01/29 13:59:49;;;;;;;;;;;;;;;;;;5082804;28;20002;-79
2022/01/29 14:02:15;;;;;;;;;;;;;;;;;;5083884;28;19951;-77
2022/01/29 14:04:44;;;;;;;;;;;;;;;;;;5081088;28;19957;-79
2022/01/29 14:07:12;;;;;;;;;;;;;;;;;;5083445;28;19912;-79
2022/01/29 14:09:43;;;;;;;;;;;;;;;;;;5082920;28;19963;-77
2022/01/29 14:12:10;;;;;;;;;;;;;;;;;;5058599;28;20021;-78
2022/01/29 14:14:36;;;;;;;;;;;;;;;;;;5083044;28;19959;-78
2022/01/29 14:17:02;;;;;;;;;;;;;;;;;;5083597;28;19955;-78
2022/01/29 14:19:29;;;;;;;;;;;;;;;;;;5085494;28;20478;-78
2022/01/29 14:21:57;;;;;;;;;;;;;;;;;;5082286;28;20013;-78
2022/01/29 14:24:23;;;;;;;;;;;;;;;;;;5082514;28;19962;-83
2022/01/29 14:26:49;;;;;;;;;;;;;;;;;;5065433;28;19956;-86
2022/01/29 14:29:15;;;;;;;;;;;;;;;;;;5084605;28;19951;-85
2022/01/29 14:31:42;;;;;;;;;;;;;;;;;;5082591;28;19929;-84
2022/01/29 14:34:08;;;;;;;;;;;;;;;;;;5084877;28;19943;-83
2022/01/29 14:36:34;;;;;;;;;;;;;;;;;;5084197;28;19940;-83
2022/01/29 14:39:00;;;;;;;;;;;;;;;;;;5082122;28;19947;-85
2022/01/29 14:41:26;;;;;;;;;;;;;;;;;;5084174;28;19955;-84
2022/01/29 14:43:53;;;;;;;;;;;;;;;;;;5064136;28;19952;-85
2022/01/29 14:46:19;;;;;;;;;;;;;;;;;;5082768;28;19986;-86
2022/01/29 14:48:45;;;;;;;;;;;;;;;;;;5084403;28;20010;-85
2022/01/29 14:51:13;;;;;;;;;;;;;;;;;;5084088;28;19928;-86
2022/01/29 14:53:39;;;;;;;;;;;;;;;;;;5083571;28;19951;-84
2022/01/29 14:56:06;;;;;;;;;;;;;;;;;;5090511;28;19960;-84
2022/01/29 14:58:32;;;;;;;;;;;;;;;;;;5065620;28;20478;-85
2022/01/29 15:00:58;;;;;;;;;;;;;;;;;;5083903;28;19967;-86
2022/01/29 15:03:24;;;;;;;;;;;;;;;;;;5083116;28;19993;-84
2022/01/29 15:05:50;;;;;;;;;;;;;;;;;;5065210;28;20430;-84
2022/01/29 15:08:17;;;;;;;;;;;;;;;;;;5083782;28;19952;-85
2022/01/29 15:10:43;;;;;;;;;;;;;;;;;;5084986;28;20520;-85
2022/01/29 15:13:09;;;;;;;;;;;;;;;;;;5083988;28;19955;-86
2022/01/29 15:15:36;;;;;;;;;;;;;;;;;;5081641;28;19970;-86
2022/01/29 15:18:04;;;;;;;;;;;;;;;;;;5089065;28;19960;-85
2022/01/29 15:20:30;;;;;;;;;;;;;;;;;;5061999;28;19955;-84
2022/01/29 15:22:56;;;;;;;;;;;;;;;;;;5068414;28;19975;-88
2022/01/29 15:25:22;;;;;;;;;;;;;;;;;;5066172;28;20444;-84
2022/01/29 15:27:49;;;;;;;;;;;;;;;;;;5087027;28;19955;-86
2022/01/29 15:30:15;;;;;;;;;;;;;;;;;;5089224;28;19997;-88
2022/01/29 15:32:46;;;;;;;;;;;;;;;;;;5087929;28;19958;-86
2022/01/29 15:35:12;;;;;;;;;;;;;;;;;;5086482;28;19923;-87
2022/01/29 15:37:38;;;;;;;;;;;;;;;;;;5088283;28;19999;-83
2022/01/29 15:40:04;;;;;;;;;;;;;;;;;;5089092;28;19951;-82
2022/01/29 15:42:31;;;;;;;;;;;;;;;;;;5047251;28;20029;-86
2022/01/29 15:44:57;;;;;;;;;;;;;;;;;;5085844;28;20399;-82
2022/01/29 15:47:23;;;;;;;;;;;;;;;;;;5061236;28;19951;-82
2022/01/29 15:49:49;;;;;;;;;;;;;;;;;;5081665;28;19947;-81
2022/01/29 15:52:15;;;;;;;;;;;;;;;;;;5066837;28;19968;-83
2022/01/29 15:54:42;;;;;;;;;;;;;;;;;;5086272;28;19974;-83
2022/01/29 15:57:08;;;;;;;;;;;;;;;;;;5087243;28;19952;-83
2022/01/29 15:59:34;;;;;;;;;;;;;;;;;;5088229;28;19944;-77
2022/01/29 16:02:01;;;;;;;;;;;;;;;;;;5067057;28;20016;-82
2022/01/29 16:04:27;;;;;;;;;;;;;;;;;;5086834;28;19970;-83
2022/01/29 16:06:54;;;;;;;;;;;;;;;;;;5079213;28;21590;-84
2022/01/29 16:09:20;;;;;;;;;;;;;;;;;;5087524;28;19955;-83
2022/01/29 16:11:46;;;;;;;;;;;;;;;;;;5084805;28;19955;-82
2022/01/29 16:14:12;;;;;;;;;;;;;;;;;;5088100;28;19955;-82
2022/01/29 16:16:40;;;;;;;;;;;;;;;;;;5087733;28;19952;-83
2022/01/29 16:19:06;;;;;;;;;;;;;;;;;;5084868;28;19967;-82
2022/01/29 16:21:32;;;;;;;;;;;;;;;;;;5069031;28;19977;-83
2022/01/29 16:23:58;;;;;;;;;;;;;;;;;;5084203;28;19948;-82
2022/01/29 16:26:24;;;;;;;;;;;;;;;;;;5087845;28;19951;-83
2022/01/29 16:28:51;;;;;;;;;;;;;;;;;;5082508;28;19956;-82
2022/01/29 16:31:17;;;;;;;;;;;;;;;;;;5067199;28;19959;-83
2022/01/29 16:33:43;;;;;;;;;;;;;;;;;;5084018;28;20470;-82
2022/01/29 16:36:09;;;;;;;;;;;;;;;;;;5083447;28;19956;-83
2022/01/29 16:38:35;;;;;;;;;;;;;;;;;;5083519;28;19963;-82
2022/01/29 16:41:02;;;;;;;;;;;;;;;;;;5085522;28;19948;-83
2022/01/29 16:43:28;;;;;;;;;;;;;;;;;;5083650;28;19973;-82
2022/01/29 16:45:57;;;;;;;;;;;;;;;;;;5085147;28;21604;-82
2022/01/29 16:48:23;;;;;;;;;;;;;;;;;;5086768;28;19956;-85
2022/01/29 16:50:51;;;;;;;;;;;;;;;;;;5080306;28;20400;-82
2022/01/29 16:53:17;;;;;;;;;;;;;;;;;;5083083;28;19955;-82
2022/01/29 16:55:43;;;;;;;;;;;;;;;;;;5087691;28;19963;-82
2022/01/29 16:58:09;;;;;;;;;;;;;;;;;;5063526;28;19927;-82